createdAt,value
2018-07-27T00:01:43.561Z,19.34
2018-07-27T00:04:11.808Z,19.32
2018-07-27T00:06:41.845Z,19.28
2018-07-27T00:09:11.865Z,19.59
2018-07-27T00:11:40.254Z,19.18
2018-07-27T00:14:08.464Z,18.93
2018-07-27T00:16:36.684Z,19.08
2018-07-27T00:19:05.395Z,19.23
2018-07-27T00:21:33.843Z,19.56
2018-07-27T00:24:02.086Z,19.41
2018-07-27T00:26:30.599Z,19.44
2018-07-27T00:28:58.978Z,19.04
2018-07-27T00:31:27.317Z,18.88
2018-07-27T00:33:56.143Z,19.08
2018-07-27T00:36:25.186Z,19.16
2018-07-27T00:38:53.454Z,19.19
2018-07-27T00:41:21.713Z,18.83
2018-07-27T00:43:50.041Z,18.63
2018-07-27T00:46:18.264Z,18.57
2018-07-27T00:48:47.564Z,18.40
2018-07-27T00:51:15.821Z,18.60
2018-07-27T00:53:44.989Z,18.73
2018-07-27T00:56:13.216Z,18.50
2018-07-27T00:58:41.478Z,18.72
2018-07-27T01:01:09.765Z,18.55
2018-07-27T01:03:38.086Z,18.73
2018-07-27T01:06:08.105Z,18.39
2018-07-27T01:08:36.393Z,18.37
2018-07-27T01:11:04.937Z,18.51
2018-07-27T01:13:33.241Z,18.38
2018-07-27T01:16:01.565Z,18.43
2018-07-27T01:18:30.642Z,18.16
2018-07-27T01:20:58.869Z,18.38
2018-07-27T01:23:33.729Z,18.13
2018-07-27T01:26:02.831Z,18.02
2018-07-27T01:28:32.727Z,18.33
2018-07-27T01:31:01.004Z,18.41
2018-07-27T01:33:29.261Z,18.38
2018-07-27T01:35:57.561Z,18.22
2018-07-27T01:38:25.801Z,18.07
2018-07-27T01:40:54.097Z,18.25
2018-07-27T01:43:23.130Z,18.12
2018-07-27T01:45:51.494Z,18.08
2018-07-27T01:48:20.544Z,18.09
2018-07-27T01:50:48.888Z,18.08
2018-07-27T01:53:18.123Z,18.16
2018-07-27T01:55:47.468Z,18.22
2018-07-27T01:58:15.706Z,17.95
2018-07-27T02:00:43.945Z,17.96
2018-07-27T02:03:12.240Z,18.03
2018-07-27T02:05:40.477Z,17.79
2018-07-27T02:08:08.817Z,17.74
2018-07-27T02:10:37.080Z,17.59
2018-07-27T02:13:05.360Z,17.53
2018-07-27T02:15:36.106Z,17.82
2018-07-27T02:18:04.378Z,17.99
2018-07-27T02:20:32.773Z,17.97
2018-07-27T02:23:01.017Z,18.00
2018-07-27T02:25:29.224Z,18.12
2018-07-27T02:27:57.513Z,17.85
2018-07-27T02:30:25.815Z,17.58
2018-07-27T02:32:54.085Z,17.47
2018-07-27T02:35:22.628Z,17.34
2018-07-27T02:37:50.914Z,17.86
2018-07-27T02:40:19.231Z,17.50
2018-07-27T02:42:48.738Z,17.47
2018-07-27T02:45:16.957Z,17.17
2018-07-27T02:47:48.850Z,17.24
2018-07-27T02:50:17.613Z,17.33
2018-07-27T02:52:46.125Z,17.51
2018-07-27T02:55:15.054Z,17.21
2018-07-27T02:57:43.293Z,16.96
2018-07-27T03:00:11.512Z,17.54
2018-07-27T03:02:39.784Z,17.47
2018-07-27T03:05:09.018Z,17.40
2018-07-27T03:07:37.490Z,16.90
2018-07-27T03:10:05.804Z,17.32
2018-07-27T03:12:34.068Z,17.35
2018-07-27T03:15:02.965Z,17.10
2018-07-27T03:17:31.224Z,17.40
2018-07-27T03:19:59.438Z,17.58
2018-07-27T03:22:28.517Z,17.49
2018-07-27T03:24:56.773Z,17.19
2018-07-27T03:27:25.730Z,16.96
2018-07-27T03:29:54.000Z,16.89
2018-07-27T03:32:22.839Z,16.86
2018-07-27T03:34:51.125Z,16.84
2018-07-27T03:37:19.375Z,16.75
2018-07-27T03:39:47.690Z,16.94
2018-07-27T03:42:16.038Z,17.10
2018-07-27T03:44:44.323Z,17.13
2018-07-27T03:47:12.588Z,16.90
2018-07-27T03:49:40.907Z,16.76
2018-07-27T03:52:09.222Z,16.87
2018-07-27T03:54:37.512Z,16.94
2018-07-27T03:57:05.826Z,16.97
2018-07-27T03:59:34.118Z,17.11
2018-07-27T04:02:02.488Z,17.20
2018-07-27T04:04:30.806Z,17.43
2018-07-27T04:06:59.223Z,17.60
2018-07-27T04:09:27.526Z,17.62
2018-07-27T04:11:55.798Z,17.55
2018-07-27T04:14:24.114Z,17.41
2018-07-27T04:16:52.666Z,17.09
2018-07-27T04:19:21.027Z,17.37
2018-07-27T04:21:49.286Z,17.31
2018-07-27T04:24:17.583Z,17.51
2018-07-27T04:26:45.876Z,17.34
2018-07-27T04:29:14.202Z,17.26
2018-07-27T04:31:42.487Z,17.44
2018-07-27T04:34:10.784Z,17.57
2018-07-27T04:36:39.083Z,17.82
2018-07-27T04:39:09.183Z,17.83
2018-07-27T04:50:39.824Z,18.35
2018-07-27T04:53:08.118Z,18.46
2018-07-27T04:55:36.381Z,18.55
2018-07-27T04:58:05.037Z,18.76
2018-07-27T05:00:33.391Z,18.88
2018-07-27T05:03:01.685Z,18.84
2018-07-27T05:05:30.081Z,18.87
2018-07-27T05:07:58.368Z,18.98
2018-07-27T05:10:32.165Z,19.13
2018-07-27T05:13:00.562Z,19.31
2018-07-27T05:15:28.863Z,19.43
2018-07-27T05:17:57.126Z,19.60
2018-07-27T05:20:25.447Z,19.77
2018-07-27T05:22:53.724Z,19.89
2018-07-27T05:25:22.055Z,20.05
2018-07-27T05:27:50.406Z,20.12
2018-07-27T05:30:18.731Z,20.20
2018-07-27T05:32:47.217Z,20.32
2018-07-27T05:35:15.567Z,20.42
2018-07-27T05:37:43.933Z,20.54
2018-07-27T05:40:12.224Z,20.70
2018-07-27T05:42:44.199Z,20.83
2018-07-27T05:45:13.044Z,21.00
2018-07-27T05:47:41.331Z,21.14
2018-07-27T05:50:09.790Z,21.25
2018-07-27T05:52:38.155Z,21.46
2018-07-27T05:55:06.632Z,21.67
2018-07-27T05:57:35.126Z,21.99
2018-07-27T06:00:03.464Z,22.04
2018-07-27T06:02:32.031Z,22.31
2018-07-27T06:05:01.509Z,22.37
2018-07-27T06:07:30.025Z,22.38
2018-07-27T06:09:58.376Z,22.39
2018-07-27T06:12:26.773Z,22.39
2018-07-27T06:14:55.294Z,22.50
2018-07-27T06:17:23.823Z,22.54
2018-07-27T06:19:52.398Z,22.50
2018-07-27T06:22:20.893Z,22.78
2018-07-27T06:28:26.147Z,22.77
2018-07-27T06:30:54.564Z,22.92
2018-07-27T06:33:23.287Z,22.93
2018-07-27T06:35:51.620Z,23.04
2018-07-27T06:38:19.951Z,23.23
2018-07-27T06:40:48.285Z,23.39
2018-07-27T06:43:16.616Z,23.43
2018-07-27T06:45:44.908Z,23.44
2018-07-27T06:48:18.878Z,23.55
2018-07-27T06:50:48.588Z,23.65
2018-07-27T06:53:16.898Z,23.75
2018-07-27T06:55:45.766Z,23.83
2018-07-27T06:58:14.462Z,23.81
2018-07-27T07:00:42.796Z,23.73
2018-07-27T07:03:11.281Z,23.83
2018-07-27T07:05:39.575Z,23.97
2018-07-27T07:08:07.839Z,24.04
2018-07-27T07:10:36.156Z,24.07
2018-07-27T07:13:04.425Z,24.14
2018-07-27T07:15:32.812Z,24.21
2018-07-27T07:18:01.100Z,24.01
2018-07-27T07:20:29.409Z,24.29
2018-07-27T07:22:57.761Z,24.24
2018-07-27T07:25:26.186Z,24.44
2018-07-27T07:27:54.433Z,24.36
2018-07-27T07:30:22.737Z,24.46
2018-07-27T07:32:51.021Z,24.49
2018-07-27T07:35:19.323Z,24.63
2018-07-27T07:37:47.600Z,24.88
2018-07-27T07:40:15.902Z,24.82
2018-07-27T07:42:44.220Z,24.90
2018-07-27T07:45:12.598Z,24.88
2018-07-27T07:47:40.865Z,25.00
2018-07-27T07:50:09.158Z,25.25
2018-07-27T07:52:37.442Z,25.25
2018-07-27T07:55:05.759Z,25.19
2018-07-27T07:57:34.028Z,25.32
2018-07-27T08:00:02.315Z,25.44
2018-07-27T08:02:30.616Z,25.41
2018-07-27T08:04:58.898Z,25.70
2018-07-27T08:07:27.203Z,25.65
2018-07-27T08:09:55.511Z,25.57
2018-07-27T08:12:23.805Z,25.76
2018-07-27T08:14:52.118Z,25.88
2018-07-27T08:17:20.395Z,25.92
2018-07-27T08:19:48.684Z,25.93
2018-07-27T08:22:17.006Z,26.01
2018-07-27T08:24:45.306Z,26.15
2018-07-27T08:27:13.567Z,26.11
2018-07-27T08:29:44.836Z,26.26
2018-07-27T08:32:13.371Z,26.09
2018-07-27T08:34:41.879Z,26.20
2018-07-27T08:37:10.468Z,26.26
2018-07-27T08:39:40.892Z,26.36
2018-07-27T08:42:09.223Z,26.51
2018-07-27T08:44:39.573Z,26.58
2018-07-27T08:47:07.971Z,26.69
2018-07-27T08:49:36.289Z,26.81
2018-07-27T08:52:04.663Z,26.89
2018-07-27T08:54:32.995Z,27.05
2018-07-27T08:57:01.335Z,26.86
2018-07-27T08:59:29.640Z,27.10
2018-07-27T09:01:57.984Z,27.23
2018-07-27T09:04:26.284Z,27.25
2018-07-27T09:06:54.633Z,27.41
2018-07-27T09:09:22.915Z,27.31
2018-07-27T09:11:51.194Z,27.18
2018-07-27T09:14:19.459Z,27.60
2018-07-27T09:16:47.779Z,27.54
2018-07-27T09:19:16.069Z,27.48
2018-07-27T09:21:44.644Z,27.52
2018-07-27T09:24:13.010Z,27.57
2018-07-27T09:26:41.302Z,27.67
2018-07-27T09:29:09.551Z,27.87
2018-07-27T09:31:38.088Z,28.08
2018-07-27T09:34:06.413Z,28.29
2018-07-27T09:36:34.742Z,28.26
2018-07-27T09:39:03.059Z,27.98
2018-07-27T09:41:31.373Z,28.14
2018-07-27T09:43:59.703Z,28.17
2018-07-27T09:46:28.080Z,28.31
2018-07-27T09:48:56.385Z,28.53
2018-07-27T09:51:25.374Z,28.72
2018-07-27T09:53:53.746Z,28.78
2018-07-27T09:56:22.104Z,28.53
2018-07-27T09:58:50.410Z,28.60
2018-07-27T10:01:27.440Z,28.94
2018-07-27T10:03:56.050Z,28.83
2018-07-27T10:06:24.370Z,28.98
2018-07-27T10:08:52.910Z,29.07
2018-07-27T10:11:21.712Z,28.83
2018-07-27T10:13:50.073Z,28.91
2018-07-27T10:16:18.386Z,28.98
2018-07-27T10:18:47.156Z,29.07
2018-07-27T10:21:15.517Z,29.17
2018-07-27T10:23:43.924Z,29.50
2018-07-27T10:26:12.941Z,29.57
2018-07-27T10:28:41.306Z,29.41
2018-07-27T10:31:09.639Z,29.27
2018-07-27T10:33:37.957Z,29.44
2018-07-27T10:36:06.445Z,29.43
2018-07-27T10:38:34.806Z,29.31
2018-07-27T10:41:03.143Z,29.55
2018-07-27T10:43:31.459Z,29.45
2018-07-27T10:45:59.769Z,29.71
2018-07-27T10:48:28.137Z,29.88
2018-07-27T10:50:56.491Z,30.10
2018-07-27T10:53:24.798Z,29.72
2018-07-27T10:55:53.135Z,29.59
2018-07-27T10:58:21.424Z,29.80
2018-07-27T11:00:49.762Z,29.53
2018-07-27T11:03:18.066Z,29.95
2018-07-27T11:05:46.361Z,29.89
2018-07-27T11:08:14.695Z,29.72
2018-07-27T11:10:43.106Z,29.55
2018-07-27T11:13:11.488Z,29.21
2018-07-27T11:15:39.797Z,29.53
2018-07-27T11:18:08.106Z,29.79
2018-07-27T11:20:36.399Z,29.97
2018-07-27T11:23:04.727Z,29.95
2018-07-27T11:25:33.265Z,30.20
2018-07-27T11:28:01.550Z,30.20
2018-07-27T11:30:30.329Z,30.52
2018-07-27T11:32:58.703Z,30.70
2018-07-27T11:35:26.985Z,30.59
2018-07-27T11:37:55.291Z,30.62
2018-07-27T11:40:23.592Z,30.78
2018-07-27T11:42:52.153Z,30.95
2018-07-27T11:45:20.469Z,30.92
2018-07-27T11:47:49.055Z,30.97
2018-07-27T11:50:17.335Z,31.12
2018-07-27T11:52:45.648Z,31.11
2018-07-27T11:55:13.947Z,31.35
2018-07-27T11:57:42.447Z,30.99
2018-07-27T12:00:10.727Z,31.20
2018-07-27T12:02:39.038Z,31.38
2018-07-27T12:05:07.532Z,31.29
2018-07-27T12:07:36.307Z,31.31
2018-07-27T12:10:04.851Z,31.39
2018-07-27T12:12:33.330Z,31.39
2018-07-27T12:15:01.962Z,31.61
2018-07-27T12:17:30.102Z,31.58
2018-07-27T12:19:58.382Z,31.94
2018-07-27T12:22:26.806Z,31.83
2018-07-27T12:24:55.274Z,31.35
2018-07-27T12:27:23.627Z,31.29
2018-07-27T12:29:51.935Z,31.67
2018-07-27T12:32:20.421Z,31.69
2018-07-27T12:34:48.720Z,31.53
2018-07-27T12:37:17.043Z,31.27
2018-07-27T12:39:45.330Z,31.40
2018-07-27T12:42:13.650Z,31.40
2018-07-27T12:44:42.156Z,31.10
2018-07-27T12:47:10.521Z,30.95
2018-07-27T12:49:38.805Z,30.73
2018-07-27T12:52:07.115Z,30.60
2018-07-27T12:54:35.393Z,30.76
2018-07-27T12:57:03.705Z,30.95
2018-07-27T12:59:32.171Z,30.79
2018-07-27T13:02:00.493Z,30.77
2018-07-27T13:04:28.796Z,30.87
2018-07-27T13:06:57.098Z,30.75
2018-07-27T13:09:25.579Z,30.55
2018-07-27T13:11:54.019Z,30.26
2018-07-27T13:14:22.574Z,30.33
2018-07-27T13:16:50.860Z,30.42
2018-07-27T13:19:19.193Z,30.79
2018-07-27T13:21:47.518Z,31.20
2018-07-27T13:24:15.953Z,31.53
2018-07-27T13:26:44.270Z,31.70
2018-07-27T13:29:12.852Z,32.04
2018-07-27T13:34:39.238Z,32.11
2018-07-27T13:37:08.086Z,32.16
2018-07-27T13:39:36.966Z,31.89
2018-07-27T13:42:06.141Z,32.07
2018-07-27T13:44:36.223Z,31.98
2018-07-27T13:47:05.332Z,32.00
2018-07-27T13:49:33.670Z,31.91
2018-07-27T13:52:02.203Z,31.70
2018-07-27T13:54:31.612Z,32.02
2018-07-27T13:56:59.938Z,32.12
2018-07-27T13:59:28.511Z,32.05
2018-07-27T14:01:56.922Z,31.97
2018-07-27T14:04:25.563Z,32.13
2018-07-27T14:06:55.147Z,32.06
2018-07-27T14:09:23.588Z,32.16
2018-07-27T14:11:52.050Z,32.03
2018-07-27T14:14:20.473Z,32.26
2018-07-27T14:16:48.823Z,32.30
2018-07-27T14:19:18.133Z,32.26
2018-07-27T14:21:46.485Z,32.30
2018-07-27T14:24:15.463Z,32.30
2018-07-27T14:26:43.958Z,32.21
2018-07-27T14:29:12.385Z,32.38
2018-07-27T14:31:40.715Z,32.30
2018-07-27T14:34:09.314Z,31.95
2018-07-27T14:36:37.991Z,32.16
2018-07-27T14:39:12.250Z,32.24
2018-07-27T14:41:41.043Z,32.53
2018-07-27T14:44:09.732Z,32.10
2018-07-27T14:46:38.444Z,32.30
2018-07-27T14:49:13.504Z,32.68
2018-07-27T14:51:42.439Z,32.57
2018-07-27T14:54:12.215Z,32.48
2018-07-27T14:56:41.433Z,32.53
2018-07-27T14:59:10.352Z,32.35
2018-07-27T15:01:39.386Z,32.50
2018-07-27T15:04:08.166Z,32.54
2018-07-27T15:06:36.487Z,32.12
2018-07-27T15:09:08.086Z,32.43
2018-07-27T15:11:36.591Z,32.31
2018-07-27T15:14:05.186Z,32.24
2018-07-27T15:16:33.711Z,32.10
2018-07-27T15:19:02.329Z,31.80
2018-07-27T15:21:30.805Z,31.67
2018-07-27T15:23:59.396Z,31.81
2018-07-27T15:26:27.817Z,31.68
2018-07-27T15:28:56.343Z,31.55
2018-07-27T15:31:24.864Z,31.62
2018-07-27T15:33:53.325Z,31.62
2018-07-27T15:36:21.613Z,31.44
2018-07-27T15:38:49.945Z,31.18
2018-07-27T15:41:18.428Z,31.08
2018-07-27T15:43:46.879Z,31.02
2018-07-27T15:46:15.363Z,30.99
2018-07-27T15:48:43.842Z,30.84
2018-07-27T15:51:12.421Z,30.78
2018-07-27T15:53:40.951Z,30.83
2018-07-27T15:56:09.501Z,30.58
2018-07-27T15:58:37.812Z,30.55
2018-07-27T16:01:06.324Z,30.53
2018-07-27T16:03:34.851Z,30.52
2018-07-27T16:06:03.355Z,30.50
2018-07-27T16:08:32.288Z,30.40
2018-07-27T16:11:00.659Z,30.45
2018-07-27T16:15:49.162Z,30.40
2018-07-27T16:18:17.490Z,30.53
2018-07-27T16:20:46.136Z,30.82
2018-07-27T16:23:14.993Z,30.64
2018-07-27T16:25:43.326Z,30.52
2018-07-27T16:28:11.761Z,30.50
2018-07-27T16:30:40.362Z,30.41
2018-07-27T16:33:08.764Z,30.58
2018-07-27T16:35:37.256Z,30.46
2018-07-27T16:46:52.787Z,30.69
2018-07-27T16:53:01.012Z,30.73
2018-07-27T16:55:52.374Z,30.75
2018-07-27T16:58:59.932Z,30.80
2018-07-27T17:01:29.564Z,30.81
2018-07-27T17:03:57.914Z,30.98
2018-07-27T17:06:26.892Z,30.98
2018-07-27T17:08:55.986Z,30.99
2018-07-27T17:11:24.824Z,30.96
2018-07-27T17:13:53.689Z,30.80
2018-07-27T17:16:22.654Z,30.79
2018-07-27T17:18:51.524Z,30.70
2018-07-27T17:21:20.220Z,30.61
2018-07-27T17:23:49.107Z,30.32
2018-07-27T17:26:17.910Z,30.08
2018-07-27T17:28:46.965Z,29.64
2018-07-27T17:31:26.010Z,29.43
2018-07-27T17:33:55.011Z,29.35
2018-07-27T17:36:23.652Z,29.36
2018-07-27T17:38:52.293Z,29.29
2018-07-27T17:41:21.003Z,29.25
2018-07-27T17:43:49.648Z,29.35
2018-07-27T17:46:18.391Z,29.06
2018-07-27T17:48:46.983Z,29.27
2018-07-27T17:51:15.477Z,29.09
2018-07-27T17:54:03.874Z,29.00
2018-07-27T17:56:50.887Z,28.82
2018-07-27T17:59:38.153Z,28.46
2018-07-27T18:08:14.192Z,28.14
2018-07-27T18:13:57.677Z,28.16
2018-07-27T18:16:53.245Z,27.95
2018-07-27T18:22:53.616Z,27.79
2018-07-27T18:25:34.559Z,27.66
2018-07-27T18:28:27.923Z,27.80
2018-07-27T18:31:13.447Z,27.52
2018-07-27T18:33:42.057Z,27.31
2018-07-27T18:36:10.739Z,27.33
2018-07-27T18:38:53.612Z,27.46
2018-07-27T18:41:49.076Z,27.28
2018-07-27T18:44:18.716Z,27.23
2018-07-27T18:46:47.021Z,27.14
2018-07-27T18:49:15.374Z,27.07
2018-07-27T18:51:43.963Z,26.89
2018-07-27T18:54:12.254Z,26.98
2018-07-27T18:56:40.683Z,26.88
2018-07-27T18:59:09.042Z,26.88
2018-07-27T19:01:37.495Z,26.75
2018-07-27T19:04:05.875Z,26.20
2018-07-27T19:06:34.185Z,25.89
2018-07-27T19:09:02.538Z,25.57
2018-07-27T19:11:30.842Z,25.39
2018-07-27T19:13:59.155Z,25.22
2018-07-27T19:16:27.585Z,25.18
2018-07-27T19:18:55.906Z,25.04
2018-07-27T19:21:24.344Z,25.00
2018-07-27T19:23:52.687Z,25.00
2018-07-27T19:26:22.116Z,24.97
2018-07-27T19:28:50.545Z,24.75
2018-07-27T19:31:18.973Z,24.56
2018-07-27T19:33:47.332Z,24.38
2018-07-27T19:36:15.752Z,24.34
2018-07-27T19:38:44.118Z,24.33
2018-07-27T19:41:12.502Z,24.43
2018-07-27T19:44:03.492Z,24.39
2018-07-27T19:46:31.930Z,24.35
2018-07-27T19:49:01.600Z,24.42
2018-07-27T19:51:30.003Z,24.43
2018-07-27T19:53:58.304Z,24.05
2018-07-27T19:56:26.866Z,23.83
2018-07-27T19:58:55.298Z,23.70
2018-07-27T20:01:23.627Z,23.63
2018-07-27T20:03:52.539Z,23.51
2018-07-27T20:06:21.135Z,23.50
2018-07-27T20:12:08.170Z,23.67
2018-07-27T20:14:36.917Z,23.53
2018-07-27T20:17:05.327Z,23.44
2018-07-27T20:19:33.616Z,23.39
2018-07-27T20:22:02.275Z,23.30
2018-07-27T20:24:31.253Z,23.35
2018-07-27T20:26:59.653Z,23.58
2018-07-27T20:29:28.130Z,23.45
2018-07-27T20:31:56.686Z,23.44
2018-07-27T20:34:25.065Z,23.30
2018-07-27T20:36:53.586Z,23.10
2018-07-27T20:39:23.598Z,22.84
2018-07-27T20:41:52.386Z,22.67
2018-07-27T20:44:20.782Z,22.29
2018-07-27T20:46:49.101Z,22.08
2018-07-27T20:49:17.525Z,22.09
2018-07-27T20:51:45.840Z,22.36
2018-07-27T20:54:14.215Z,22.43
2018-07-27T20:56:42.570Z,22.32
2018-07-27T20:59:10.912Z,22.43
2018-07-27T21:01:39.394Z,22.49
2018-07-27T21:04:07.735Z,22.10
2018-07-27T21:06:36.070Z,22.46
2018-07-27T21:09:06.320Z,22.48
2018-07-27T21:11:34.607Z,22.61
2018-07-27T21:14:02.955Z,22.76
2018-07-27T21:16:31.438Z,22.68
2018-07-27T21:18:59.783Z,22.58
2018-07-27T21:21:28.297Z,22.35
2018-07-27T21:23:56.582Z,22.15
2018-07-27T21:26:24.924Z,22.31
2018-07-27T21:28:53.278Z,22.21
2018-07-27T21:31:21.591Z,22.17
2018-07-27T21:33:49.972Z,22.19
2018-07-27T21:36:18.411Z,22.18
2018-07-27T21:38:46.833Z,22.37
2018-07-27T21:41:15.131Z,22.52
2018-07-27T21:43:43.537Z,22.58
2018-07-27T21:46:11.851Z,22.65
2018-07-27T21:48:41.002Z,22.37
2018-07-27T21:51:09.318Z,22.06
2018-07-27T21:53:37.599Z,21.84
2018-07-27T21:56:06.351Z,21.69
2018-07-27T21:58:34.686Z,21.45
2018-07-27T22:01:02.991Z,21.49
2018-07-27T22:03:31.380Z,21.83
2018-07-27T22:05:59.655Z,21.85
2018-07-27T22:08:28.102Z,21.97
2018-07-27T22:10:56.389Z,21.87
2018-07-27T22:13:24.867Z,21.53
2018-07-27T22:15:53.272Z,20.79
2018-07-27T22:18:21.563Z,20.73
2018-07-27T22:20:49.980Z,21.08
2018-07-27T22:23:18.272Z,21.46
2018-07-27T22:25:46.550Z,20.96
2018-07-27T22:28:14.884Z,20.77
2018-07-27T22:30:43.199Z,20.57
2018-07-27T22:33:11.501Z,20.95
2018-07-27T22:35:39.775Z,21.22
2018-07-27T22:38:08.063Z,21.35
2018-07-27T22:40:36.364Z,21.44
2018-07-27T22:43:05.773Z,21.49
2018-07-27T22:45:34.075Z,20.85
2018-07-27T22:48:04.872Z,21.13
2018-07-27T22:50:33.132Z,20.80
2018-07-27T22:53:01.458Z,20.83
2018-07-27T22:55:29.750Z,20.61
2018-07-27T22:57:58.058Z,20.52
2018-07-27T23:00:26.331Z,20.54
2018-07-27T23:02:54.640Z,20.70
2018-07-27T23:05:22.980Z,20.83
2018-07-27T23:07:51.295Z,20.82
2018-07-27T23:10:19.574Z,20.77
2018-07-27T23:12:47.895Z,21.03
2018-07-27T23:15:16.188Z,21.16
2018-07-27T23:17:44.483Z,21.23
2018-07-27T23:20:14.691Z,21.21
2018-07-27T23:22:43.824Z,20.99
2018-07-27T23:25:12.139Z,20.26
2018-07-27T23:27:40.429Z,20.12
2018-07-27T23:30:10.864Z,20.08
2018-07-27T23:32:39.149Z,20.04
2018-07-27T23:35:07.543Z,20.12
2018-07-27T23:37:35.839Z,20.20
2018-07-27T23:40:04.728Z,20.28
2018-07-27T23:42:33.042Z,20.37
2018-07-27T23:45:01.330Z,20.25
2018-07-27T23:47:29.618Z,19.78
2018-07-27T23:49:57.900Z,19.52
2018-07-27T23:52:26.318Z,19.69
2018-07-27T23:54:54.618Z,19.91
2018-07-27T23:57:22.904Z,20.17
2018-07-27T23:59:51.228Z,20.18
